Time;durP1;ratioP1;P1;durP2;ratioP2;P2;SDS_P1;SDS_P2;PMS_P1;PMS_P2;Temp;Humidity;BMP_temperature;BMP_pressure;BME280_temperature;BME280_humidity;BME280_pressure;Samples;Min_cycle;Max_cycle;Signal;HPM_P1;HPM_P2
2024/01/15 05:17:05;;;;;;;;;31.33;28.67;;;;;;;;5614967;38;47030909;-60
2024/01/15 05:23:13;;;;;;;;;32.33;29.00;;;;;;;;6501653;46;8911;-60
2024/01/15 05:29:16;;;;;;;;;35.00;32.00;;;;;;;;6501459;31;8905;-61
2024/01/15 05:35:19;;;;;;;;;34.67;32.67;;;;;;;;6502155;38;8922;-60
2024/01/15 05:41:22;;;;;;;;;37.67;33.33;;;;;;;;6501205;46;8903;-60
2024/01/15 05:47:24;;;;;;;;;34.33;30.00;;;;;;;;6503246;46;8930;-60
2024/01/15 05:53:27;;;;;;;;;35.67;32.00;;;;;;;;6501474;38;8918;-60
2024/01/15 05:59:32;;;;;;;;;41.67;36.00;;;;;;;;6502868;31;8871;-60
2024/01/15 06:05:36;;;;;;;;;46.00;42.00;;;;;;;;6502934;31;8971;-60
2024/01/15 06:11:38;;;;;;;;;38.33;36.00;;;;;;;;6501405;38;8947;-60
2024/01/15 06:17:42;;;;;;;;;45.00;42.67;;;;;;;;6494028;39;8886;-60
2024/01/15 06:23:45;;;;;;;;;48.67;40.33;;;;;;;;6492970;31;8904;-60
2024/01/15 06:29:48;;;;;;;;;39.00;36.67;;;;;;;;6491697;39;8915;-60
2024/01/15 06:35:52;;;;;;;;;43.33;38.00;;;;;;;;6492790;31;9064;-61
2024/01/15 06:41:55;;;;;;;;;39.67;34.00;;;;;;;;6491046;39;8895;-59
2024/01/15 06:47:57;;;;;;;;;41.67;35.67;;;;;;;;6493817;31;8829;-67
2024/01/15 06:54:02;;;;;;;;;42.67;37.33;;;;;;;;6493345;31;8875;-61
2024/01/15 07:00:07;;;;;;;;;37.00;35.67;;;;;;;;6490011;39;8869;-60
2024/01/15 07:06:11;;;;;;;;;44.00;38.67;;;;;;;;6491296;46;8994;-60
2024/01/15 07:12:16;;;;;;;;;39.33;37.33;;;;;;;;6490814;39;10618;-61
2024/01/15 07:18:18;;;;;;;;;50.67;43.00;;;;;;;;6492407;31;9534;-61
2024/01/15 07:24:20;;;;;;;;;50.00;40.33;;;;;;;;6489463;31;8919;-62
2024/01/15 07:30:23;;;;;;;;;26.00;24.33;;;;;;;;6490480;39;8927;-61
2024/01/15 07:36:27;;;;;;;;;50.00;44.67;;;;;;;;6489147;31;9042;-60
2024/01/15 07:42:29;;;;;;;;;45.00;40.33;;;;;;;;6489738;46;8962;-61
2024/01/15 07:48:32;;;;;;;;;57.33;48.67;;;;;;;;6492993;39;8876;-61
2024/01/15 07:54:35;;;;;;;;;64.33;52.33;;;;;;;;6491041;46;9039;-62
2024/01/15 08:00:39;;;;;;;;;66.33;53.33;;;;;;;;6482845;39;10003;-61
2024/01/15 08:06:43;;;;;;;;;70.67;54.33;;;;;;;;6480426;46;9034;-63
2024/01/15 08:12:47;;;;;;;;;51.67;47.67;;;;;;;;6479072;39;8946;-61
2024/01/15 08:18:53;;;;;;;;;61.00;49.33;;;;;;;;6484176;39;8920;-61
2024/01/15 08:24:56;;;;;;;;;61.67;50.67;;;;;;;;6484374;31;10249;-61
2024/01/15 08:31:00;;;;;;;;;60.33;47.00;;;;;;;;6481140;46;8986;-63
2024/01/15 08:37:03;;;;;;;;;55.75;46.25;;;;;;;;6487623;39;8932;-61
2024/01/15 08:43:06;;;;;;;;;52.00;42.00;;;;;;;;6489251;39;9160;-60
2024/01/15 08:49:11;;;;;;;;;56.00;45.00;;;;;;;;6489520;31;8947;-60
2024/01/15 08:55:13;;;;;;;;;51.75;42.50;;;;;;;;6488795;46;9046;-62
2024/01/15 09:01:16;;;;;;;;;50.75;45.75;;;;;;;;6489805;39;9059;-61
2024/01/15 09:07:20;;;;;;;;;55.00;47.00;;;;;;;;6488065;31;9036;-62
2024/01/15 09:13:22;;;;;;;;;53.75;45.00;;;;;;;;6487781;39;8985;-60
2024/01/15 09:19:27;;;;;;;;;42.75;40.75;;;;;;;;6488210;39;9011;-61
2024/01/15 09:25:31;;;;;;;;;42.00;38.50;;;;;;;;6486719;31;9003;-62
2024/01/15 09:31:47;;;;;;;;;40.75;35.75;;;;;;;;6486379;46;9025;-61
2024/01/15 09:37:49;;;;;;;;;39.25;34.75;;;;;;;;6485787;31;9157;-61
2024/01/15 09:43:52;;;;;;;;;30.25;27.25;;;;;;;;6487595;39;8928;-61
2024/01/15 09:49:54;;;;;;;;;37.50;31.50;;;;;;;;6540994;36;130684;-64
2024/01/15 09:55:58;;;;;;;;;35.50;30.00;;;;;;;;6487791;46;8976;-61
2024/01/15 10:02:02;;;;;;;;;42.25;37.75;;;;;;;;6489825;46;9005;-61
2024/01/15 10:08:10;;;;;;;;;33.25;31.75;;;;;;;;6488803;39;9032;-62
2024/01/15 10:14:13;;;;;;;;;34.50;31.00;;;;;;;;6488878;39;9018;-62
2024/01/15 10:20:15;;;;;;;;;22.25;22.25;;;;;;;;6484653;31;8977;-60
2024/01/15 10:26:17;;;;;;;;;23.50;21.25;;;;;;;;6486825;39;8927;-62
2024/01/15 10:32:23;;;;;;;;;24.25;22.75;;;;;;;;6489749;39;8939;-65
2024/01/15 10:38:27;;;;;;;;;24.00;21.25;;;;;;;;6489305;31;8904;-64
2024/01/15 10:44:30;;;;;;;;;23.75;19.75;;;;;;;;6489097;39;8992;-65
2024/01/15 10:50:42;;;;;;;;;22.00;22.00;;;;;;;;6488850;46;8923;-66
2024/01/15 10:56:47;;;;;;;;;24.75;21.50;;;;;;;;6489785;39;9018;-65
2024/01/15 11:02:51;;;;;;;;;19.50;18.25;;;;;;;;6488582;39;9002;-68
2024/01/15 11:08:55;;;;;;;;;18.75;18.75;;;;;;;;6489813;31;9002;-63
2024/01/15 11:15:04;;;;;;;;;21.25;20.75;;;;;;;;6488720;39;8958;-62
2024/01/15 11:21:17;;;;;;;;;24.25;21.50;;;;;;;;6486090;46;9075;-65
2024/01/15 11:27:43;;;;;;;;;21.00;19.25;;;;;;;;6486581;39;8941;-64
2024/01/15 11:33:52;;;;;;;;;28.00;26.25;;;;;;;;6489409;46;8939;-65
2024/01/15 11:40:03;;;;;;;;;35.25;29.25;;;;;;;;6487819;39;9036;-63
2024/01/15 11:46:11;;;;;;;;;26.50;24.50;;;;;;;;6486076;31;8946;-64
2024/01/15 11:52:23;;;;;;;;;24.00;22.25;;;;;;;;6486494;46;9117;-63
2024/01/15 11:58:25;;;;;;;;;27.25;24.25;;;;;;;;6484884;39;8935;-64
2024/01/15 12:04:32;;;;;;;;;31.75;25.50;;;;;;;;6488728;31;8967;-64
2024/01/15 12:10:36;;;;;;;;;27.75;25.00;;;;;;;;6486527;39;8957;-67
2024/01/15 12:16:44;;;;;;;;;26.75;24.25;;;;;;;;6489522;39;9010;-64
2024/01/15 12:22:48;;;;;;;;;31.50;22.25;;;;;;;;6489717;39;8967;-63
2024/01/15 12:29:02;;;;;;;;;17.00;17.00;;;;;;;;6488451;39;8975;-64
2024/01/15 12:35:10;;;;;;;;;22.50;22.50;;;;;;;;6489064;39;9549;-63
2024/01/15 12:41:15;;;;;;;;;23.75;22.50;;;;;;;;6487631;39;8952;-65
2024/01/15 12:47:20;;;;;;;;;30.75;28.00;;;;;;;;6487404;31;9129;-61
2024/01/15 12:53:24;;;;;;;;;32.50;28.00;;;;;;;;6488038;39;8980;-63
2024/01/15 12:59:28;;;;;;;;;25.00;23.75;;;;;;;;6488470;39;8883;-63
2024/01/15 13:05:32;;;;;;;;;32.00;30.75;;;;;;;;6488468;47;9057;-62
2024/01/15 13:11:38;;;;;;;;;29.25;27.25;;;;;;;;6489626;31;8934;-63
2024/01/15 13:17:41;;;;;;;;;31.50;28.00;;;;;;;;6488695;47;8936;-64
2024/01/15 13:23:46;;;;;;;;;28.25;25.00;;;;;;;;6486906;31;9045;-64
2024/01/15 13:29:48;;;;;;;;;33.00;28.00;;;;;;;;6489433;39;8919;-63
2024/01/15 13:35:53;;;;;;;;;26.75;26.25;;;;;;;;6491261;39;8914;-64
2024/01/15 13:41:57;;;;;;;;;31.00;31.00;;;;;;;;6492241;39;9657;-63
2024/01/15 13:48:00;;;;;;;;;31.00;25.75;;;;;;;;6487989;39;8947;-64
2024/01/15 13:54:07;;;;;;;;;33.00;32.50;;;;;;;;6491373;31;8954;-63
2024/01/15 14:00:18;;;;;;;;;42.00;35.50;;;;;;;;6489728;31;8919;-63
2024/01/15 14:06:25;;;;;;;;;37.25;33.00;;;;;;;;6491213;39;9054;-64
2024/01/15 14:12:29;;;;;;;;;48.00;40.25;;;;;;;;6489293;39;8909;-63
2024/01/15 14:18:32;;;;;;;;;39.00;38.50;;;;;;;;6518244;31;8885;-65
2024/01/15 14:24:36;;;;;;;;;32.25;31.75;;;;;;;;6487080;31;9627;-62
2024/01/15 14:30:39;;;;;;;;;36.75;35.50;;;;;;;;6485363;39;8961;-62
2024/01/15 14:36:41;;;;;;;;;35.25;33.75;;;;;;;;6488313;46;8933;-62
2024/01/15 14:42:52;;;;;;;;;35.25;34.00;;;;;;;;6489140;46;8928;-62
2024/01/15 14:48:55;;;;;;;;;34.25;32.00;;;;;;;;6491294;31;8904;-62
2024/01/15 14:54:57;;;;;;;;;34.50;31.25;;;;;;;;6490265;46;8979;-62
2024/01/15 15:01:00;;;;;;;;;39.75;36.75;;;;;;;;6491509;39;9762;-63
2024/01/15 15:07:06;;;;;;;;;37.25;30.50;;;;;;;;6490308;31;8927;-62
2024/01/15 15:13:09;;;;;;;;;32.25;29.25;;;;;;;;6490467;46;8933;-63
2024/01/15 15:19:13;;;;;;;;;30.50;28.50;;;;;;;;6491005;39;8932;-61
2024/01/15 15:25:16;;;;;;;;;30.25;27.50;;;;;;;;6490453;39;9625;-62
2024/01/15 15:31:19;;;;;;;;;28.00;26.75;;;;;;;;6489431;46;8901;-61
2024/01/15 15:37:22;;;;;;;;;38.50;38.00;;;;;;;;6490783;39;8988;-62
2024/01/15 15:43:26;;;;;;;;;40.50;35.75;;;;;;;;6489752;39;8958;-61
2024/01/15 15:49:30;;;;;;;;;37.75;35.00;;;;;;;;6490722;39;8996;-62
2024/01/15 15:55:36;;;;;;;;;51.00;44.00;;;;;;;;6490681;39;9466;-63
2024/01/15 16:07:37;;;;;;;;;69.80;58.20;;;;;;;;6490879;39;9002;-62
2024/01/15 16:13:40;;;;;;;;;63.25;52.00;;;;;;;;6490776;39;8967;-62
2024/01/15 16:19:44;;;;;;;;;49.00;41.50;;;;;;;;6491280;31;8984;-63
2024/01/15 16:25:44;;;;;;;;;48.25;40.75;;;;;;;;6489653;39;9047;-62
2024/01/15 16:31:47;;;;;;;;;58.00;47.25;;;;;;;;6489100;46;8897;-61
2024/01/15 16:37:50;;;;;;;;;64.00;53.33;;;;;;;;6491027;39;9043;-61
2024/01/15 16:43:54;;;;;;;;;58.25;49.25;;;;;;;;6490566;39;9032;-62
2024/01/15 16:49:56;;;;;;;;;56.75;49.00;;;;;;;;6489129;31;8967;-62
2024/01/15 16:56:00;;;;;;;;;51.00;45.25;;;;;;;;6489691;46;8981;-61
2024/01/15 17:02:03;;;;;;;;;53.50;44.75;;;;;;;;6489379;39;9133;-61
2024/01/15 17:08:06;;;;;;;;;58.25;45.50;;;;;;;;6488906;39;8961;-62
2024/01/15 17:14:09;;;;;;;;;56.75;44.50;;;;;;;;6488638;39;8960;-61
2024/01/15 17:20:13;;;;;;;;;45.00;40.25;;;;;;;;6490253;46;8901;-61
2024/01/15 17:26:15;;;;;;;;;54.00;45.00;;;;;;;;6489493;39;8895;-59
2024/01/15 17:32:18;;;;;;;;;56.50;47.25;;;;;;;;6488764;39;8972;-61
2024/01/15 17:38:20;;;;;;;;;53.75;43.75;;;;;;;;6489685;47;8865;-61
2024/01/15 17:44:24;;;;;;;;;58.50;47.00;;;;;;;;6489328;31;8912;-60
2024/01/15 17:50:27;;;;;;;;;58.00;46.25;;;;;;;;6490012;39;8877;-62
2024/01/15 17:56:30;;;;;;;;;60.50;50.50;;;;;;;;6489419;39;9574;-62
2024/01/15 18:02:33;;;;;;;;;64.25;51.00;;;;;;;;6488322;47;8897;-60
2024/01/15 18:08:37;;;;;;;;;62.25;47.50;;;;;;;;6490326;39;9048;-62
2024/01/15 18:14:41;;;;;;;;;69.25;55.25;;;;;;;;6491921;39;8940;-62
2024/01/15 18:20:46;;;;;;;;;74.75;61.50;;;;;;;;6492017;31;8908;-61
2024/01/15 18:26:50;;;;;;;;;77.00;61.75;;;;;;;;6491269;46;8906;-62
2024/01/15 18:32:52;;;;;;;;;81.50;64.25;;;;;;;;6489559;39;8972;-61
2024/01/15 18:39:05;;;;;;;;;72.50;58.75;;;;;;;;6491333;46;8946;-63
2024/01/15 18:45:10;;;;;;;;;74.00;60.75;;;;;;;;6490937;31;8963;-62
2024/01/15 18:51:23;;;;;;;;;82.00;66.00;;;;;;;;6491417;46;8904;-62
2024/01/15 18:57:25;;;;;;;;;79.00;63.25;;;;;;;;6490939;31;8920;-59
2024/01/15 19:03:29;;;;;;;;;83.25;63.50;;;;;;;;6491554;46;8961;-59
2024/01/15 19:09:31;;;;;;;;;88.75;68.75;;;;;;;;6490473;46;8873;-61
2024/01/15 19:15:33;;;;;;;;;84.67;66.33;;;;;;;;6491447;39;8916;-60
2024/01/15 19:21:36;;;;;;;;;92.33;69.00;;;;;;;;6490604;39;8881;-61
2024/01/15 19:27:43;;;;;;;;;82.00;64.00;;;;;;;;6491064;39;8882;-60
2024/01/15 19:33:46;;;;;;;;;78.75;62.75;;;;;;;;6490984;39;9004;-60
2024/01/15 19:39:49;;;;;;;;;78.75;64.00;;;;;;;;6490443;39;9651;-60
2024/01/15 19:45:51;;;;;;;;;78.25;61.50;;;;;;;;6309803;39;10000220;-60
2024/01/15 19:51:54;;;;;;;;;74.25;60.25;;;;;;;;6490566;39;8923;-59
2024/01/15 19:57:56;;;;;;;;;74.75;59.25;;;;;;;;6490294;46;8892;-61
2024/01/15 20:03:58;;;;;;;;;88.50;67.50;;;;;;;;6490443;39;8941;-61
2024/01/15 20:10:01;;;;;;;;;85.33;68.33;;;;;;;;6490806;39;8837;-61
2024/01/15 20:16:15;;;;;;;;;88.67;69.33;;;;;;;;6490326;39;8968;-60
2024/01/15 20:22:17;;;;;;;;;96.67;74.33;;;;;;;;6491014;39;8849;-61
2024/01/15 20:28:22;;;;;;;;;93.67;72.00;;;;;;;;6489938;39;8917;-61
2024/01/15 20:34:24;;;;;;;;;94.00;76.00;;;;;;;;6490499;39;8876;-59
2024/01/15 20:40:26;;;;;;;;;91.00;70.33;;;;;;;;6490213;46;8890;-60
2024/01/15 20:46:28;;;;;;;;;90.67;70.67;;;;;;;;6490767;39;8856;-60
2024/01/15 20:52:30;;;;;;;;;85.00;67.33;;;;;;;;6490714;39;8996;-62
2024/01/15 20:58:34;;;;;;;;;85.67;65.00;;;;;;;;6489960;46;8884;-60
2024/01/15 21:04:36;;;;;;;;;88.00;67.00;;;;;;;;6489486;46;8980;-60
2024/01/15 21:10:42;;;;;;;;;95.00;76.00;;;;;;;;6489919;47;8841;-60
2024/01/15 21:16:46;;;;;;;;;92.67;71.67;;;;;;;;6489689;31;8936;-62
2024/01/15 21:22:51;;;;;;;;;91.67;72.33;;;;;;;;6489927;39;8874;-62
2024/01/15 21:28:54;;;;;;;;;83.67;68.67;;;;;;;;6490264;47;8915;-61
2024/01/15 21:34:56;;;;;;;;;100.67;85.00;;;;;;;;6490202;39;8850;-62
2024/01/15 21:40:58;;;;;;;;;106.33;91.00;;;;;;;;6488956;39;9540;-61
2024/01/15 21:47:03;;;;;;;;;100.33;80.67;;;;;;;;6490969;46;8865;-59
2024/01/15 21:53:07;;;;;;;;;112.33;93.67;;;;;;;;6491704;39;9540;-60
2024/01/15 21:59:11;;;;;;;;;119.00;107.00;;;;;;;;6491575;39;8869;-60
2024/01/15 22:05:13;;;;;;;;;105.00;93.33;;;;;;;;6491995;46;8907;-61
2024/01/15 22:11:16;;;;;;;;;103.67;89.00;;;;;;;;6490296;39;8919;-60
2024/01/15 22:17:16;;;;;;;;;97.00;81.33;;;;;;;;6491850;39;8966;-61
2024/01/15 22:23:19;;;;;;;;;106.00;98.00;;;;;;;;6492154;39;9497;-61
2024/01/15 22:29:23;;;;;;;;;120.00;101.00;;;;;;;;6491299;46;8958;-59
2024/01/15 22:35:26;;;;;;;;;114.00;102.67;;;;;;;;6490497;46;8892;-60
2024/01/15 22:41:30;;;;;;;;;105.00;91.67;;;;;;;;6491430;31;9482;-59
2024/01/15 22:47:32;;;;;;;;;109.33;93.67;;;;;;;;6491355;46;8885;-59
2024/01/15 22:53:35;;;;;;;;;103.33;91.00;;;;;;;;6491252;39;8870;-61
2024/01/15 22:59:37;;;;;;;;;99.00;82.67;;;;;;;;6489727;39;9073;-61
2024/01/15 23:05:40;;;;;;;;;100.67;83.33;;;;;;;;6491605;39;8932;-60
2024/01/15 23:11:47;;;;;;;;;100.33;78.33;;;;;;;;6490621;39;8890;-60
2024/01/15 23:17:50;;;;;;;;;95.00;73.00;;;;;;;;6491888;39;8929;-59
2024/01/15 23:23:53;;;;;;;;;100.67;78.67;;;;;;;;6491806;31;8887;-60
2024/01/15 23:29:54;;;;;;;;;85.33;67.67;;;;;;;;6489716;39;9007;-60
2024/01/15 23:36:00;;;;;;;;;90.67;68.00;;;;;;;;6490327;46;8886;-60
2024/01/15 23:42:02;;;;;;;;;87.00;67.00;;;;;;;;6490720;39;8861;-61
2024/01/15 23:48:07;;;;;;;;;87.33;70.67;;;;;;;;6491125;31;8940;-60
2024/01/15 23:54:11;;;;;;;;;89.67;71.33;;;;;;;;6490793;46;8868;-59
